Fasa, Iran

5:31 PM IRST on December 09, 2016 (GMT +0330)
Fasa | | Change Station

Elev 4259 ft 28.90 °N, 53.72 °E | Updated 1 hour ago

Partly Cloudy
Partly Cloudy
61 °F
Feels Like 61 °F
N
18
Wind Variable Wind from West

Today
High -- | Low -- °F
--% Chance of Precip.
Yesterday
High -- | Low -- °F
Precip. -- in
Pressure 29.92 in
Visibility 6.2 miles
Clouds Scattered Clouds 4000 ft
Dew Point 30 °F
Humidity 31%
Rainfall 0.00 in
Snow Depth Not available.
6:37 AM 4:58 PM
Waxing Gibbous, 74% visible
METAR OISF 091300Z 26016KT 9999 SCT040 16/M01 Q1013
Pressure 29.92 in
Visibility 6.2 miles
Clouds Scattered Clouds 4000 ft
Dew Point 30 °F
Humidity 31%
Rainfall 0.00 in
Snow Depth Not available.
6:37 AM 4:58 PM
Waxing Gibbous, 74% visible
METAR OISF 091300Z 26016KT 9999 SCT040 16/M01 Q1013

10-Day Weather Forecast

No radar image for this location.
×

Almanac

Astronomy

Dec. 09, 2016 Rise Set
Actual Time
Civil Twilight
Nautical Twilight
Astronomical Twilight
Moon
Length of Visible Light
Length of Day
Tomorrow will be .
, % of the Moon is Illuminated

Today's Extremes

Country Highs Country Lows

Community

WunderPhotos

Upload Photos

1,956,432 photos uploaded!

WunderBlog® & News

Nearby

Air Quality

  Air Quality AQ Index Pollutant
Not available.

Snow Depth

Station Depth Elevation

Earthquake Activity

City Distance Mag. Time & Date
Minimum magnitude displayed is 2.5.

Coastal Water Temperatures

Place Temperature

Stations

Nearby Weather Stations

Station Location Temp. Windchill Dew Point Humidity Wind Precip. Elev Updated Type